Time;durP1;ratioP1;P1;durP2;ratioP2;P2;SDS_P1;SDS_P2;PMS_P1;PMS_P2;Temp;Humidity;BMP_temperature;BMP_pressure;BME280_temperature;BME280_humidity;BME280_pressure;Samples;Min_cycle;Max_cycle;Signal;HPM_P1;HPM_P2
2020/12/27 00:00:24;;;;;;;67.10;41.80;;;2.90;96.50;;;;;;5092780;28;20024;-68
2020/12/27 00:02:49;;;;;;;78.22;45.10;;;2.80;96.50;;;;;;5092746;28;20035;-70
2020/12/27 00:05:15;;;;;;;54.72;34.38;;;2.80;96.80;;;;;;5094430;28;20024;-68
2020/12/27 00:07:41;;;;;;;113.22;54.53;;;2.80;96.50;;;;;;5095148;28;20060;-70
2020/12/27 00:10:07;;;;;;;130.45;65.90;;;2.90;96.80;;;;;;5095492;28;20086;-71
2020/12/27 00:12:33;;;;;;;127.03;62.20;;;3.00;96.30;;;;;;5093160;28;20028;-70
2020/12/27 00:14:59;;;;;;;158.68;78.28;;;3.00;96.40;;;;;;5094575;28;20081;-70
2020/12/27 00:17:25;;;;;;;186.93;82.05;;;3.00;96.30;;;;;;5094733;28;20144;-71
2020/12/27 00:19:51;;;;;;;158.15;75.97;;;2.80;96.30;;;;;;5094466;28;20132;-71
2020/12/27 00:22:20;;;;;;;159.80;77.65;;;2.80;96.50;;;;;;5095198;28;20024;-70
2020/12/27 00:24:45;;;;;;;97.43;49.58;;;2.90;96.70;;;;;;5093104;28;20115;-69
2020/12/27 00:27:13;;;;;;;148.73;74.32;;;3.00;96.50;;;;;;5093217;28;20177;-70
2020/12/27 00:29:39;;;;;;;127.25;62.70;;;3.00;96.20;;;;;;5093276;28;20020;-69
2020/12/27 00:32:05;;;;;;;122.15;59.97;;;2.90;96.20;;;;;;5094202;28;20020;-70
2020/12/27 00:34:31;;;;;;;98.10;53.15;;;3.00;96.40;;;;;;5094194;28;20384;-71
2020/12/27 00:36:58;;;;;;;68.35;39.65;;;2.80;96.40;;;;;;5094123;28;20024;-68
2020/12/27 00:39:25;;;;;;;74.90;43.80;;;2.80;96.50;;;;;;5092506;28;20028;-69
2020/12/27 00:41:50;;;;;;;76.70;44.47;;;2.70;96.70;;;;;;5094346;28;20085;-69
2020/12/27 00:44:17;;;;;;;101.18;53.90;;;2.70;96.80;;;;;;5094655;28;20032;-71
2020/12/27 00:46:48;;;;;;;302.33;131.40;;;2.70;96.90;;;;;;5092359;28;20492;-69
2020/12/27 00:49:13;;;;;;;150.48;85.05;;;2.90;96.80;;;;;;5093019;28;20056;-69
2020/12/27 00:51:39;;;;;;;62.90;37.78;;;3.00;96.60;;;;;;5094214;28;20063;-68
2020/12/27 00:54:05;;;;;;;112.50;62.15;;;3.00;96.30;;;;;;5092612;28;20059;-70
2020/12/27 00:56:31;;;;;;;99.05;53.00;;;2.80;96.60;;;;;;5094395;28;20028;-68
2020/12/27 00:58:56;;;;;;;81.72;45.60;;;2.80;96.80;;;;;;5094081;28;20028;-69
2020/12/27 01:01:22;;;;;;;92.45;46.28;;;2.90;97.00;;;;;;5093970;28;20064;-71
2020/12/27 01:03:48;;;;;;;110.70;51.42;;;2.90;96.40;;;;;;5093770;28;20024;-70
2020/12/27 01:06:13;;;;;;;89.55;52.70;;;2.80;96.60;;;;;;5092593;28;20036;-68
2020/12/27 01:08:39;;;;;;;122.22;62.65;;;2.70;96.70;;;;;;5092368;28;20024;-69
2020/12/27 01:11:06;;;;;;;95.10;48.25;;;2.70;96.90;;;;;;5092596;28;20020;-70
2020/12/27 01:13:33;;;;;;;116.00;59.70;;;2.70;96.90;;;;;;5094686;28;20035;-71
2020/12/27 01:15:59;;;;;;;80.88;42.38;;;2.80;97.30;;;;;;5093573;28;20111;-70
2020/12/27 01:18:25;;;;;;;187.15;81.63;;;2.80;96.80;;;;;;5092527;28;20070;-68
2020/12/27 01:20:50;;;;;;;156.57;73.32;;;2.90;96.80;;;;;;5092231;28;20025;-68
2020/12/27 01:23:17;;;;;;;122.40;60.97;;;2.90;96.90;;;;;;5093860;28;20372;-70
2020/12/27 01:25:48;;;;;;;153.68;70.45;;;2.90;96.60;;;;;;5092440;28;20058;-69
2020/12/27 01:28:14;;;;;;;141.90;59.95;;;2.90;96.40;;;;;;5096306;28;20063;-70
2020/12/27 01:30:41;;;;;;;122.28;54.08;;;2.80;96.70;;;;;;5096731;28;20030;-69
2020/12/27 01:33:06;;;;;;;55.80;34.53;;;2.70;96.90;;;;;;5096608;28;20031;-71
2020/12/27 01:35:32;;;;;;;64.13;39.15;;;2.80;96.90;;;;;;5097556;28;20024;-70
2020/12/27 01:37:58;;;;;;;52.95;34.58;;;2.80;97.00;;;;;;5097994;28;20030;-68
2020/12/27 01:40:24;;;;;;;57.40;33.40;;;2.80;96.80;;;;;;5098317;28;20452;-69
2020/12/27 01:42:59;;;;;;;81.15;42.95;;;2.90;96.70;;;;;;5096292;28;20081;-70
2020/12/27 01:45:26;;;;;;;98.95;48.90;;;3.00;96.60;;;;;;5097335;28;20051;-70
2020/12/27 01:47:52;;;;;;;90.80;47.60;;;3.00;96.60;;;;;;5095979;28;20107;-71
2020/12/27 01:50:19;;;;;;;88.90;46.42;;;3.00;96.20;;;;;;5097011;28;20074;-69
2020/12/27 01:52:45;;;;;;;69.35;38.97;;;3.00;96.30;;;;;;5096256;28;20115;-68
2020/12/27 01:55:12;;;;;;;62.17;36.50;;;3.10;96.40;;;;;;5097185;28;20027;-69
2020/12/27 01:58:12;;;;;;;69.18;40.35;;;3.10;96.40;;;;;;5095898;28;20110;-70
2020/12/27 02:00:38;;;;;;;93.10;51.47;;;3.10;96.30;;;;;;5097016;28;20402;-70
2020/12/27 02:03:05;;;;;;;69.70;39.33;;;3.10;96.20;;;;;;5095756;28;20028;-70
2020/12/27 02:05:31;;;;;;;101.30;52.60;;;3.10;96.20;;;;;;5096502;28;20077;-71
2020/12/27 02:07:57;;;;;;;93.78;51.08;;;2.90;96.10;;;;;;5095932;28;20040;-70
2020/12/27 02:10:23;;;;;;;79.85;44.05;;;3.10;96.30;;;;;;5096692;28;20031;-71
2020/12/27 02:12:49;;;;;;;98.90;52.15;;;3.00;96.20;;;;;;5097452;28;20026;-71
2020/12/27 02:15:15;;;;;;;61.85;36.13;;;3.00;96.10;;;;;;5097125;28;20024;-68
2020/12/27 02:17:41;;;;;;;61.65;35.55;;;3.10;96.20;;;;;;5097439;28;20110;-70
2020/12/27 02:20:07;;;;;;;72.78;40.38;;;3.20;96.40;;;;;;5097074;28;20077;-70
2020/12/27 02:22:33;;;;;;;81.45;43.38;;;3.10;96.00;;;;;;5097313;28;20035;-70
2020/12/27 02:24:58;;;;;;;60.40;35.35;;;3.10;95.80;;;;;;5096503;28;20478;-71
2020/12/27 02:27:24;;;;;;;55.58;32.58;;;3.10;96.00;;;;;;5095570;28;20032;-69
2020/12/27 02:29:50;;;;;;;53.55;33.78;;;3.20;96.10;;;;;;5096805;28;20031;-69
2020/12/27 02:32:16;;;;;;;53.22;33.22;;;3.20;95.80;;;;;;5096261;28;20028;-71
2020/12/27 02:34:41;;;;;;;64.65;37.17;;;3.20;95.70;;;;;;5095428;28;20030;-70
2020/12/27 02:37:07;;;;;;;63.00;36.38;;;3.20;95.80;;;;;;5096699;28;20039;-70
2020/12/27 02:39:33;;;;;;;55.78;32.78;;;3.20;95.80;;;;;;5096498;28;20028;-69
2020/12/27 02:41:58;;;;;;;55.60;33.60;;;3.20;95.80;;;;;;5095346;28;20028;-68
2020/12/27 02:44:24;;;;;;;53.05;33.05;;;3.20;95.70;;;;;;5095196;28;20028;-68
2020/12/27 02:46:50;;;;;;;56.70;33.65;;;3.20;95.60;;;;;;5095752;28;20127;-71
2020/12/27 02:49:16;;;;;;;220.73;93.05;;;3.20;95.40;;;;;;5096376;28;20035;-70
2020/12/27 02:51:41;;;;;;;67.57;38.45;;;3.00;95.50;;;;;;5096309;28;20024;-69
2020/12/27 02:54:07;;;;;;;63.28;36.53;;;2.90;95.70;;;;;;5095054;28;20111;-70
2020/12/27 02:56:33;;;;;;;59.08;34.45;;;2.80;96.00;;;;;;5096379;28;20028;-69
2020/12/27 02:59:00;;;;;;;67.60;38.83;;;2.80;96.00;;;;;;5094727;28;20024;-70
2020/12/27 03:01:26;;;;;;;84.32;46.53;;;2.90;96.20;;;;;;5094966;28;20452;-72
2020/12/27 03:03:52;;;;;;;91.22;49.83;;;2.80;96.20;;;;;;5095857;28;20024;-69
2020/12/27 03:06:18;;;;;;;79.10;44.17;;;2.90;96.20;;;;;;5095746;28;20031;-70
2020/12/27 03:08:45;;;;;;;83.90;45.33;;;2.90;96.30;;;;;;5096333;28;20024;-69
2020/12/27 03:11:11;;;;;;;64.13;36.33;;;3.00;96.20;;;;;;5094759;28;20027;-69
2020/12/27 03:13:37;;;;;;;61.97;35.20;;;3.00;96.00;;;;;;5094473;28;20035;-72
2020/12/27 03:16:05;;;;;;;58.85;34.78;;;3.10;96.00;;;;;;5094677;28;20081;-70
2020/12/27 03:18:32;;;;;;;86.50;46.95;;;3.10;95.80;;;;;;5094907;28;20427;-69
2020/12/27 03:20:58;;;;;;;58.13;33.42;;;3.10;95.80;;;;;;5094510;28;20464;-69
2020/12/27 03:23:24;;;;;;;55.22;32.72;;;3.00;95.60;;;;;;5094555;28;20384;-69
2020/12/27 03:25:50;;;;;;;58.03;33.25;;;3.00;95.70;;;;;;5094786;28;20468;-68
2020/12/27 03:28:16;;;;;;;56.90;32.10;;;3.00;95.80;;;;;;5094041;28;20032;-70
2020/12/27 03:30:42;;;;;;;57.45;33.30;;;3.10;96.20;;;;;;5095968;28;20069;-68
2020/12/27 03:33:08;;;;;;;51.97;29.38;;;3.00;95.90;;;;;;5094178;28;20055;-69
2020/12/27 03:35:34;;;;;;;55.05;32.95;;;3.00;95.80;;;;;;5094105;28;20060;-68
2020/12/27 03:38:00;;;;;;;54.65;32.42;;;2.90;96.10;;;;;;5095790;28;20062;-72
2020/12/27 03:40:25;;;;;;;55.42;32.33;;;3.00;96.00;;;;;;5095486;28;20028;-70
2020/12/27 03:42:51;;;;;;;56.88;31.73;;;2.90;96.10;;;;;;5095190;28;20028;-69
2020/12/27 03:45:17;;;;;;;59.70;33.88;;;2.90;96.20;;;;;;5093975;28;20180;-70
2020/12/27 03:47:43;;;;;;;54.08;31.67;;;2.80;96.20;;;;;;5093680;28;20038;-69
2020/12/27 03:50:09;;;;;;;50.28;30.30;;;2.80;96.60;;;;;;5093692;28;20046;-70
2020/12/27 03:52:35;;;;;;;54.28;31.63;;;2.90;96.30;;;;;;5094008;28;20353;-70
2020/12/27 03:55:00;;;;;;;50.25;30.45;;;2.90;96.00;;;;;;5093627;28;20383;-69
2020/12/27 03:57:26;;;;;;;51.47;29.45;;;2.90;96.00;;;;;;5093905;28;20040;-72
2020/12/27 03:59:52;;;;;;;50.38;28.48;;;2.90;96.10;;;;;;5095685;28;20103;-69
2020/12/27 04:02:18;;;;;;;52.03;30.67;;;3.00;95.60;;;;;;5094774;28;20020;-69
2020/12/27 04:04:43;;;;;;;51.15;29.70;;;3.00;96.10;;;;;;5093701;28;20122;-68
2020/12/27 04:07:09;;;;;;;39.28;24.15;;;3.00;95.70;;;;;;5094665;28;20028;-70
2020/12/27 04:09:35;;;;;;;39.92;24.80;;;3.00;94.20;;;;;;5094709;28;20024;-70
2020/12/27 04:12:01;;;;;;;44.13;27.02;;;3.10;94.60;;;;;;5095050;28;20448;-70
2020/12/27 04:14:27;;;;;;;31.38;19.75;;;3.20;95.50;;;;;;5093563;28;20379;-70
2020/12/27 04:16:53;;;;;;;30.10;17.45;;;3.20;94.00;;;;;;5093216;28;20024;-69
2020/12/27 04:19:19;;;;;;;29.52;17.00;;;3.20;93.80;;;;;;5094689;28;20073;-72
2020/12/27 04:21:45;;;;;;;30.63;16.38;;;3.30;93.40;;;;;;5093483;28;20024;-68
2020/12/27 04:24:11;;;;;;;25.63;15.20;;;3.30;93.60;;;;;;5094621;28;20028;-70
2020/12/27 04:26:37;;;;;;;21.58;12.65;;;3.30;94.20;;;;;;5093285;28;20156;-70
2020/12/27 04:29:04;;;;;;;23.73;13.60;;;3.30;93.60;;;;;;5094736;28;20182;-69
2020/12/27 04:31:30;;;;;;;21.08;12.35;;;3.30;93.10;;;;;;5094277;28;20028;-68
2020/12/27 04:33:56;;;;;;;22.27;12.55;;;3.30;92.90;;;;;;5093203;28;20111;-71
2020/12/27 04:36:23;;;;;;;23.33;13.45;;;3.40;92.70;;;;;;5094438;28;20472;-68
2020/12/27 04:38:49;;;;;;;21.42;12.45;;;3.30;92.30;;;;;;5092908;28;20027;-69
2020/12/27 04:41:17;;;;;;;18.88;11.40;;;3.30;92.50;;;;;;5094399;28;20032;-69
2020/12/27 04:43:48;;;;;;;16.63;10.70;;;3.30;92.30;;;;;;5092947;28;20032;-69
2020/12/27 04:46:15;;;;;;;18.58;11.50;;;3.30;92.10;;;;;;5092937;28;20048;-70
2020/12/27 04:48:44;;;;;;;19.67;11.43;;;3.30;92.70;;;;;;5094872;28;20035;-69
2020/12/27 04:51:11;;;;;;;21.00;12.18;;;3.30;92.10;;;;;;5093945;28;20020;-70
2020/12/27 04:53:38;;;;;;;17.98;11.02;;;3.30;92.80;;;;;;5094223;28;20379;-68
2020/12/27 04:56:06;;;;;;;19.13;11.80;;;3.20;92.10;;;;;;5092870;28;20056;-70
2020/12/27 04:58:32;;;;;;;21.48;12.60;;;3.20;92.20;;;;;;5092526;28;20034;-69
2020/12/27 05:01:00;;;;;;;20.63;12.80;;;3.20;91.70;;;;;;5093280;28;20020;-69
2020/12/27 05:03:26;;;;;;;18.58;11.65;;;3.20;92.10;;;;;;5092798;28;20085;-71
2020/12/27 05:05:53;;;;;;;18.63;10.93;;;3.20;92.60;;;;;;5092448;28;20052;-69
2020/12/27 05:08:20;;;;;;;17.42;10.93;;;3.10;91.90;;;;;;5092576;28;20028;-70
2020/12/27 05:10:47;;;;;;;18.45;11.13;;;3.20;92.10;;;;;;5093712;28;20039;-70
2020/12/27 05:13:15;;;;;;;30.25;19.80;;;3.20;92.10;;;;;;5093543;28;20464;-70
2020/12/27 05:15:42;;;;;;;61.13;31.95;;;3.20;92.10;;;;;;5092635;28;20027;-69
2020/12/27 05:18:09;;;;;;;19.98;11.55;;;3.20;92.10;;;;;;5093640;28;20050;-68
2020/12/27 05:20:37;;;;;;;22.48;14.80;;;3.20;91.60;;;;;;5093656;28;20093;-70
2020/12/27 05:23:07;;;;;;;18.13;11.68;;;3.10;91.80;;;;;;5092884;28;20052;-68
2020/12/27 05:25:34;;;;;;;22.85;14.75;;;3.20;92.00;;;;;;5093206;28;20401;-69
2020/12/27 05:28:11;;;;;;;20.52;13.23;;;3.20;92.10;;;;;;5092459;28;20032;-69
2020/12/27 05:30:42;;;;;;;33.33;21.13;;;3.20;92.50;;;;;;5093852;28;20512;-69
2020/12/27 05:33:26;;;;;;;35.85;21.45;;;3.20;92.10;;;;;;5093398;28;20024;-69
2020/12/27 05:36:01;;;;;;;102.45;55.45;;;3.20;92.40;;;;;;5093775;28;20024;-70
2020/12/27 05:38:29;;;;;;;33.28;20.23;;;3.10;91.80;;;;;;5093807;28;20114;-70
2020/12/27 05:40:54;;;;;;;24.52;16.10;;;3.10;92.00;;;;;;5092125;28;20020;-69
2020/12/27 05:43:20;;;;;;;19.48;11.82;;;3.20;92.50;;;;;;5093658;28;20035;-69
2020/12/27 05:45:46;;;;;;;20.40;12.30;;;3.20;92.60;;;;;;5092072;28;20039;-69
2020/12/27 05:48:12;;;;;;;20.33;12.23;;;3.20;92.40;;;;;;5091995;28;20028;-69
2020/12/27 05:50:41;;;;;;;18.35;11.80;;;3.10;93.00;;;;;;5093321;28;20024;-69
2020/12/27 05:53:30;;;;;;;20.73;12.07;;;3.10;93.20;;;;;;5093117;28;20036;-68
2020/12/27 05:55:59;;;;;;;21.88;14.00;;;3.20;92.80;;;;;;5091708;28;20020;-68
2020/12/27 05:58:26;;;;;;;19.58;11.40;;;3.20;92.40;;;;;;5093439;28;20036;-69
2020/12/27 06:00:56;;;;;;;16.90;11.30;;;3.20;92.10;;;;;;5093189;28;20031;-69
2020/12/27 06:03:27;;;;;;;18.58;12.60;;;3.20;92.20;;;;;;5093252;28;20036;-70
2020/12/27 06:06:08;;;;;;;19.50;12.30;;;3.20;92.30;;;;;;5092445;28;20495;-71
2020/12/27 06:09:01;;;;;;;17.92;10.77;;;3.30;92.70;;;;;;5092401;28;20040;-69
2020/12/27 06:11:45;;;;;;;19.30;12.13;;;3.20;92.60;;;;;;5093469;28;20030;-69
2020/12/27 06:14:17;;;;;;;20.27;11.98;;;3.20;92.50;;;;;;5095966;28;20086;-70
2020/12/27 06:17:17;;;;;;;18.83;11.98;;;3.20;93.20;;;;;;5095679;28;20040;-69
2020/12/27 06:20:01;;;;;;;20.38;12.45;;;3.20;92.70;;;;;;5094998;28;20127;-70
2020/12/27 06:22:29;;;;;;;16.23;10.77;;;3.20;92.80;;;;;;5095568;28;20025;-70
2020/12/27 06:24:58;;;;;;;18.20;11.48;;;3.20;92.60;;;;;;5095735;28;20375;-69
2020/12/27 06:27:26;;;;;;;18.17;11.52;;;3.20;92.70;;;;;;5095599;28;20036;-71
2020/12/27 06:29:57;;;;;;;18.92;12.07;;;3.20;92.80;;;;;;5095361;28;20040;-70
2020/12/27 06:32:25;;;;;;;19.17;11.75;;;3.20;92.80;;;;;;5096670;28;20028;-70
2020/12/27 06:34:53;;;;;;;21.00;13.13;;;3.20;92.50;;;;;;5096847;28;20369;-69
2020/12/27 06:37:19;;;;;;;24.42;15.45;;;3.20;92.60;;;;;;5096471;28;20024;-69
2020/12/27 06:39:46;;;;;;;22.83;14.68;;;3.10;92.60;;;;;;5096446;28;20016;-70
2020/12/27 06:42:16;;;;;;;38.72;24.98;;;3.20;92.70;;;;;;5096682;28;20024;-70
2020/12/27 06:44:49;;;;;;;32.35;19.10;;;3.10;92.50;;;;;;5094672;28;20464;-69
2020/12/27 06:47:16;;;;;;;23.02;15.20;;;3.00;92.70;;;;;;5096535;28;20039;-70
2020/12/27 06:49:42;;;;;;;23.30;15.05;;;3.00;93.00;;;;;;5095175;28;20166;-71
2020/12/27 06:52:19;;;;;;;23.02;15.57;;;3.10;93.70;;;;;;5096515;28;20024;-69
2020/12/27 06:54:48;;;;;;;25.83;17.13;;;3.00;93.00;;;;;;5096452;28;20027;-69
2020/12/27 06:57:43;;;;;;;25.65;16.20;;;3.00;93.30;;;;;;5096385;28;20052;-69
2020/12/27 07:00:29;;;;;;;22.50;14.60;;;3.00;93.10;;;;;;5096273;28;20017;-70
2020/12/27 07:03:15;;;;;;;25.70;15.73;;;3.00;93.10;;;;;;5094963;28;20038;-70
2020/12/27 07:05:41;;;;;;;89.38;47.05;;;3.00;93.00;;;;;;5095723;28;20537;-71
2020/12/27 07:08:12;;;;;;;71.38;40.80;;;3.00;92.80;;;;;;5096188;28;20032;-70
2020/12/27 07:10:46;;;;;;;48.90;29.95;;;2.90;93.10;;;;;;5094510;28;20024;-70
2020/12/27 07:13:14;;;;;;;52.63;33.85;;;2.90;93.30;;;;;;5095912;28;20111;-70
2020/12/27 07:15:54;;;;;;;84.18;50.58;;;2.90;93.60;;;;;;5095731;28;20032;-72
2020/12/27 07:18:29;;;;;;;86.28;50.83;;;2.90;93.40;;;;;;5094425;28;20120;-71
2020/12/27 07:20:57;;;;;;;115.32;63.58;;;3.00;93.30;;;;;;5094665;28;20024;-70
2020/12/27 07:23:25;;;;;;;57.22;35.95;;;2.90;93.50;;;;;;5094161;28;20438;-69
2020/12/27 07:26:01;;;;;;;32.22;22.40;;;2.90;93.40;;;;;;5095242;28;20028;-69
2020/12/27 07:28:29;;;;;;;26.92;17.40;;;3.00;93.40;;;;;;5095706;28;20020;-70
2020/12/27 07:31:02;;;;;;;30.35;19.38;;;3.00;93.40;;;;;;5095763;28;20107;-70
2020/12/27 07:33:33;;;;;;;40.13;24.40;;;3.00;93.10;;;;;;5095515;28;20456;-71
2020/12/27 07:36:05;;;;;;;63.13;31.75;;;2.90;92.90;;;;;;5094542;28;20031;-70
2020/12/27 07:38:51;;;;;;;62.65;29.75;;;2.90;93.50;;;;;;5094398;28;20089;-72
2020/12/27 07:41:37;;;;;;;55.22;29.10;;;2.90;93.30;;;;;;5087139;28;20123;-71
2020/12/27 07:44:10;;;;;;;48.08;24.15;;;3.00;93.60;;;;;;5094860;28;20028;-70
2020/12/27 07:46:36;;;;;;;33.65;19.42;;;3.00;93.00;;;;;;5093459;28;20055;-71
2020/12/27 07:49:03;;;;;;;29.45;17.13;;;3.00;93.10;;;;;;5094516;28;20426;-70
2020/12/27 07:51:29;;;;;;;24.77;15.55;;;3.10;93.20;;;;;;5094090;28;20028;-71
2020/12/27 07:53:56;;;;;;;32.88;20.83;;;3.10;93.30;;;;;;5093851;28;20349;-70
2020/12/27 07:56:27;;;;;;;33.42;21.83;;;3.10;92.90;;;;;;5095275;28;20073;-70
2020/12/27 07:58:59;;;;;;;31.63;17.83;;;3.00;93.20;;;;;;5095824;28;20056;-70
2020/12/27 08:01:28;;;;;;;68.53;39.28;;;2.90;93.30;;;;;;5093614;28;20020;-68
2020/12/27 08:03:59;;;;;;;37.20;22.65;;;2.80;93.50;;;;;;5093770;28;20475;-68
2020/12/27 08:06:27;;;;;;;32.67;20.77;;;2.90;93.80;;;;;;5095377;28;20077;-69
2020/12/27 08:09:19;;;;;;;37.03;20.83;;;3.00;93.50;;;;;;5094771;28;20111;-68
2020/12/27 08:11:45;;;;;;;46.45;29.25;;;3.00;93.60;;;;;;5093766;28;20039;-68
2020/12/27 08:14:13;;;;;;;56.78;35.25;;;3.10;93.50;;;;;;5094378;28;20028;-67
2020/12/27 08:16:40;;;;;;;56.50;29.90;;;3.10;93.50;;;;;;5094862;28;20035;-68
2020/12/27 08:19:11;;;;;;;54.63;33.35;;;3.20;93.30;;;;;;5094881;28;20027;-68
2020/12/27 08:21:40;;;;;;;35.72;21.13;;;3.20;93.30;;;;;;5094742;28;20078;-68
2020/12/27 08:24:10;;;;;;;36.83;22.05;;;3.20;93.10;;;;;;5095020;28;20484;-69
2020/12/27 08:26:38;;;;;;;59.58;33.72;;;3.20;93.10;;;;;;5094989;28;20020;-68
2020/12/27 08:29:24;;;;;;;48.63;30.75;;;3.20;92.90;;;;;;5094064;28;20107;-68
2020/12/27 08:32:03;;;;;;;44.17;29.17;;;3.20;92.90;;;;;;5094193;28;20055;-68
2020/12/27 08:34:29;;;;;;;42.30;25.92;;;3.20;92.90;;;;;;5094679;28;20341;-68
2020/12/27 08:36:57;;;;;;;43.08;26.42;;;3.20;93.00;;;;;;5094371;28;20035;-69
2020/12/27 08:39:40;;;;;;;74.68;40.33;;;3.20;93.30;;;;;;5094582;28;20102;-69
2020/12/27 08:42:36;;;;;;;74.60;39.55;;;3.20;93.10;;;;;;5094191;28;20489;-69
2020/12/27 08:45:07;;;;;;;111.95;64.57;;;3.20;92.60;;;;;;5094364;28;20483;-70
2020/12/27 08:48:05;;;;;;;70.07;45.95;;;3.10;92.60;;;;;;5094633;28;20024;-68
2020/12/27 08:50:36;;;;;;;41.08;25.42;;;3.10;93.10;;;;;;5092965;28;20027;-69
2020/12/27 08:53:03;;;;;;;43.70;27.05;;;3.20;93.30;;;;;;5093032;28;20031;-68
2020/12/27 08:55:30;;;;;;;32.58;21.60;;;3.20;93.20;;;;;;5092942;28;20028;-67
2020/12/27 08:57:57;;;;;;;29.50;19.23;;;3.20;93.10;;;;;;5093611;28;20024;-68
2020/12/27 09:00:31;;;;;;;33.10;23.00;;;3.20;92.90;;;;;;5094215;28;20024;-68
2020/12/27 09:02:58;;;;;;;37.58;26.20;;;3.30;93.00;;;;;;5092517;28;20034;-68
2020/12/27 09:05:28;;;;;;;38.72;27.17;;;3.30;92.90;;;;;;5094130;28;20371;-69
2020/12/27 09:07:54;;;;;;;53.42;27.70;;;3.20;92.80;;;;;;5093730;28;20032;-69
2020/12/27 09:10:23;;;;;;;70.93;34.13;;;3.30;92.80;;;;;;5093433;28;20051;-68
2020/12/27 09:12:59;;;;;;;59.38;31.55;;;3.20;92.90;;;;;;5094037;28;20024;-69
2020/12/27 09:15:26;;;;;;;67.57;32.15;;;3.20;92.80;;;;;;5094024;28;20478;-68
2020/12/27 09:18:06;;;;;;;62.15;29.58;;;3.20;92.70;;;;;;5092500;28;20028;-68
2020/12/27 09:20:36;;;;;;;55.53;28.77;;;3.20;93.00;;;;;;5092740;28;20116;-68
2020/12/27 09:23:16;;;;;;;72.65;35.10;;;3.20;92.60;;;;;;5094276;28;20024;-69
2020/12/27 09:25:43;;;;;;;42.92;27.00;;;3.20;92.80;;;;;;5093573;28;20017;-69
2020/12/27 09:28:17;;;;;;;41.92;25.60;;;3.30;92.90;;;;;;5092430;28;20031;-69
2020/12/27 09:30:48;;;;;;;35.30;20.65;;;3.30;92.90;;;;;;5092510;28;20028;-69
2020/12/27 09:33:20;;;;;;;33.38;19.92;;;3.40;92.60;;;;;;5093844;28;20066;-68
2020/12/27 09:35:58;;;;;;;58.88;36.83;;;3.40;92.90;;;;;;5092416;28;20029;-69
2020/12/27 09:38:28;;;;;;;61.88;35.78;;;3.40;92.30;;;;;;5092675;28;20434;-68
2020/12/27 09:41:16;;;;;;;47.63;26.85;;;3.40;92.30;;;;;;5092729;28;20035;-72
2020/12/27 09:44:00;;;;;;;32.45;19.10;;;3.40;93.10;;;;;;5093774;28;20020;-71
2020/12/27 09:46:58;;;;;;;49.33;28.70;;;3.50;92.80;;;;;;5092227;28;20052;-71
2020/12/27 09:49:29;;;;;;;211.55;115.20;;;3.50;92.70;;;;;;5097564;28;20024;-73
2020/12/27 09:52:12;;;;;;;55.33;34.38;;;3.50;92.80;;;;;;5097343;28;20048;-72
2020/12/27 09:54:40;;;;;;;52.10;32.40;;;3.50;92.30;;;;;;5098018;28;20487;-71
2020/12/27 09:57:17;;;;;;;42.83;26.83;;;3.50;93.20;;;;;;5097885;28;20039;-72
2020/12/27 09:59:46;;;;;;;37.17;23.33;;;3.50;93.20;;;;;;5096341;28;20028;-72
2020/12/27 10:02:12;;;;;;;44.08;26.38;;;3.60;93.00;;;;;;5096231;28;20426;-73
2020/12/27 10:04:38;;;;;;;42.85;27.20;;;3.60;92.60;;;;;;5096148;28;20027;-72
2020/12/27 10:07:04;;;;;;;36.75;24.23;;;3.60;92.70;;;;;;5096063;28;20032;-71
2020/12/27 10:09:33;;;;;;;62.67;40.08;;;3.60;92.70;;;;;;5094557;28;20032;-71
2020/12/27 10:11:59;;;;;;;45.28;26.13;;;3.40;92.50;;;;;;5094907;28;20069;-71
2020/12/27 10:14:25;;;;;;;59.17;34.22;;;3.50;93.00;;;;;;5094405;28;20422;-71
2020/12/27 10:16:51;;;;;;;105.97;68.35;;;3.50;92.90;;;;;;5094718;28;20408;-72
2020/12/27 10:19:16;;;;;;;93.72;53.03;;;3.40;93.10;;;;;;5094674;28;20024;-72
2020/12/27 10:21:49;;;;;;;59.88;37.50;;;3.30;93.70;;;;;;5094303;28;20039;-71
2020/12/27 10:24:15;;;;;;;68.45;44.35;;;3.10;93.80;;;;;;5094524;28;20028;-71
2020/12/27 10:26:51;;;;;;;158.60;84.95;;;3.20;94.30;;;;;;5094223;28;20020;-71
2020/12/27 10:29:17;;;;;;;95.15;54.88;;;3.30;94.60;;;;;;5094624;28;20032;-72
2020/12/27 10:31:48;;;;;;;107.38;64.43;;;3.40;93.60;;;;;;5095400;28;20024;-71
2020/12/27 10:34:14;;;;;;;141.18;90.95;;;3.40;93.40;;;;;;5096338;28;20494;-72
2020/12/27 10:36:46;;;;;;;96.13;55.67;;;3.40;93.70;;;;;;5096176;28;20103;-72
2020/12/27 10:39:13;;;;;;;238.27;120.28;;;3.40;93.80;;;;;;5095392;28;20160;-71
2020/12/27 10:41:43;;;;;;;265.30;114.45;;;3.50;93.90;;;;;;5095250;28;20345;-73
2020/12/27 10:44:09;;;;;;;158.93;75.05;;;3.50;93.50;;;;;;5095472;28;20024;-71
2020/12/27 10:46:36;;;;;;;351.38;133.85;;;3.60;93.50;;;;;;5095255;28;20094;-73
2020/12/27 10:49:01;;;;;;;205.02;89.68;;;3.60;93.40;;;;;;5094768;28;20036;-72
2020/12/27 10:51:27;;;;;;;204.50;99.43;;;3.60;93.20;;;;;;5096055;28;20030;-71
2020/12/27 10:53:53;;;;;;;345.50;136.50;;;3.50;93.40;;;;;;5096220;28;20462;-72
2020/12/27 10:56:19;;;;;;;208.32;83.55;;;3.60;93.40;;;;;;5096158;28;20038;-73
2020/12/27 10:58:44;;;;;;;417.13;158.48;;;3.60;93.20;;;;;;5094768;28;20028;-72
2020/12/27 11:01:11;;;;;;;384.75;153.70;;;3.60;93.10;;;;;;5095545;28;20023;-72
2020/12/27 11:03:36;;;;;;;271.27;106.43;;;3.60;93.30;;;;;;5095772;28;20061;-73
2020/12/27 11:06:02;;;;;;;346.13;127.22;;;3.70;93.20;;;;;;5094984;28;20032;-71
2020/12/27 11:08:30;;;;;;;616.08;243.68;;;3.70;93.20;;;;;;5094827;28;20115;-71
2020/12/27 11:10:55;;;;;;;761.88;298.13;;;3.60;93.50;;;;;;5094601;28;20118;-72
2020/12/27 11:13:21;;;;;;;298.42;112.75;;;3.70;93.30;;;;;;5094886;28;20157;-72
2020/12/27 11:15:47;;;;;;;383.83;138.25;;;3.70;93.30;;;;;;5094535;28;20028;-72
2020/12/27 11:18:12;;;;;;;892.92;349.23;;;3.70;93.60;;;;;;5096264;28;20020;-73
2020/12/27 11:20:38;;;;;;;544.05;199.20;;;3.80;93.50;;;;;;5094264;28;20042;-70
2020/12/27 11:23:04;;;;;;;171.38;66.93;;;3.80;93.40;;;;;;5094413;28;20028;-72
2020/12/27 11:25:30;;;;;;;1153.32;442.77;;;3.80;93.50;;;;;;5094599;28;20464;-73
2020/12/27 11:27:55;;;;;;;553.13;210.55;;;3.80;93.60;;;;;;5095394;28;20024;-72
2020/12/27 11:30:21;;;;;;;195.60;70.47;;;3.80;94.00;;;;;;5093574;28;20028;-71
2020/12/27 11:32:47;;;;;;;244.30;89.28;;;3.80;93.30;;;;;;5095474;28;20099;-72
2020/12/27 11:35:13;;;;;;;607.97;237.35;;;3.80;93.30;;;;;;5094417;28;20028;-70
2020/12/27 11:37:38;;;;;;;161.45;69.78;;;3.80;93.60;;;;;;5095338;28;20030;-72
2020/12/27 11:40:05;;;;;;;231.27;98.72;;;3.90;93.30;;;;;;5094279;28;20082;-72
2020/12/27 11:42:31;;;;;;;388.88;179.85;;;3.90;93.50;;;;;;5094317;28;20028;-72
2020/12/27 11:44:57;;;;;;;113.32;53.80;;;3.90;93.20;;;;;;5093648;28;20051;-72
2020/12/27 11:47:22;;;;;;;289.30;117.45;;;3.90;93.30;;;;;;5094347;28;20031;-70
2020/12/27 11:49:48;;;;;;;188.10;79.93;;;3.90;93.10;;;;;;5095743;28;20379;-71
2020/12/27 11:52:14;;;;;;;331.35;132.52;;;3.90;93.10;;;;;;5093426;28;20426;-70
2020/12/27 11:54:40;;;;;;;486.23;219.82;;;3.90;93.20;;;;;;5094959;28;20020;-72
2020/12/27 11:57:06;;;;;;;287.10;115.50;;;3.90;93.50;;;;;;5093179;28;20054;-72
2020/12/27 11:59:33;;;;;;;554.65;248.60;;;4.00;93.30;;;;;;5092722;28;20101;-71
2020/12/27 12:01:59;;;;;;;222.35;99.30;;;3.90;93.40;;;;;;5093900;28;20028;-71
2020/12/27 12:04:25;;;;;;;278.65;111.93;;;4.00;93.70;;;;;;5093901;28;20028;-71
2020/12/27 12:06:51;;;;;;;291.13;117.50;;;4.00;93.50;;;;;;5093501;28;20031;-72
2020/12/27 12:09:17;;;;;;;240.40;97.68;;;4.00;93.20;;;;;;5094029;28;20464;-71
2020/12/27 12:11:42;;;;;;;168.40;71.97;;;4.00;93.00;;;;;;5094638;28;20031;-71
2020/12/27 12:14:09;;;;;;;298.13;132.13;;;4.00;93.20;;;;;;5093622;28;20380;-72
2020/12/27 12:16:35;;;;;;;178.65;85.65;;;4.00;93.30;;;;;;5093607;28;20452;-72
2020/12/27 12:19:02;;;;;;;262.75;125.53;;;4.00;93.30;;;;;;5093251;28;20077;-70
2020/12/27 12:21:29;;;;;;;162.18;75.70;;;4.00;93.40;;;;;;5093548;28;20020;-71
2020/12/27 12:23:56;;;;;;;179.20;78.78;;;4.00;93.20;;;;;;5093530;28;20085;-71
2020/12/27 12:26:27;;;;;;;231.48;101.05;;;4.00;93.30;;;;;;5094744;28;20024;-71
2020/12/27 12:28:53;;;;;;;203.20;91.25;;;4.00;93.30;;;;;;5093368;28;20096;-71
2020/12/27 12:31:19;;;;;;;380.35;164.30;;;4.10;93.40;;;;;;5093353;28;20126;-71
2020/12/27 12:33:47;;;;;;;62.25;37.78;;;4.00;93.30;;;;;;5092896;28;20028;-72
2020/12/27 12:36:21;;;;;;;485.50;213.40;;;4.00;93.10;;;;;;5093574;28;20379;-71
2020/12/27 12:38:48;;;;;;;381.23;168.10;;;4.00;93.80;;;;;;5093911;28;20372;-72
2020/12/27 12:41:18;;;;;;;164.20;83.50;;;4.00;93.80;;;;;;5092889;28;20024;-71